createdAt,value
2023-03-05T00:00:54.784Z,35.72
2023-03-05T00:05:57.069Z,38.72
2023-03-05T00:11:00.373Z,39.60
2023-03-05T00:16:06.951Z,42.40
2023-03-05T00:21:21.851Z,36.85
2023-03-05T00:26:25.833Z,38.13
2023-03-05T00:31:29.953Z,36.17
2023-03-05T00:36:32.237Z,38.40
2023-03-05T00:41:33.793Z,36.50
2023-03-05T00:46:35.926Z,38.13
2023-03-05T00:51:37.454Z,35.95
2023-03-05T00:56:38.992Z,39.80
2023-03-05T01:01:40.621Z,40.05
2023-03-05T01:06:42.214Z,34.65
2023-03-05T01:11:43.697Z,36.65
2023-03-05T01:16:45.504Z,38.78
2023-03-05T01:21:48.117Z,42.63
2023-03-05T01:26:49.897Z,34.40
2023-03-05T01:31:51.374Z,37.47
2023-03-05T01:36:53.322Z,38.40
2023-03-05T01:41:54.819Z,39.63
2023-03-05T01:46:56.488Z,32.70
2023-03-05T01:52:07.026Z,38.88
2023-03-05T01:57:22.905Z,40.72
2023-03-05T02:02:25.339Z,36.35
2023-03-05T02:07:27.159Z,39.17
2023-03-05T02:12:28.680Z,36.63
2023-03-05T02:17:30.531Z,35.75
2023-03-05T02:22:32.041Z,41.45
2023-03-05T02:27:33.854Z,45.03
2023-03-05T02:32:35.371Z,41.15
2023-03-05T02:37:37.044Z,33.92
2023-03-05T02:42:39.065Z,40.97
2023-03-05T02:47:41.190Z,33.80
2023-03-05T02:52:43.636Z,36.50
2023-03-05T02:57:49.116Z,36.78
2023-03-05T03:02:50.669Z,35.35
2023-03-05T03:07:52.163Z,43.35
2023-03-05T03:12:53.626Z,35.38
2023-03-05T03:17:55.466Z,36.45
2023-03-05T03:22:56.912Z,39.85
2023-03-05T03:27:58.418Z,39.83
2023-03-05T03:32:59.878Z,38.95
2023-03-05T03:38:01.563Z,37.80
2023-03-05T03:43:03.228Z,37.50
2023-03-05T03:48:04.846Z,37.75
2023-03-05T03:53:07.065Z,39.78
2023-03-05T03:58:09.162Z,33.30
2023-03-05T04:03:10.609Z,44.08
2023-03-05T04:08:12.148Z,38.42
2023-03-05T04:13:13.686Z,32.42
2023-03-05T04:18:15.128Z,38.47
2023-03-05T04:23:16.856Z,35.08
2023-03-05T04:28:18.324Z,37.10
2023-03-05T04:33:20.019Z,42.97
2023-03-05T04:38:21.937Z,44.10
2023-03-05T04:43:23.484Z,38.50
2023-03-05T04:48:25.753Z,39.60
2023-03-05T04:53:27.279Z,37.35
2023-03-05T04:58:29.146Z,38.33
2023-03-05T05:03:31.206Z,41.70
2023-03-05T05:08:33.087Z,41.83
2023-03-05T05:13:34.920Z,41.50
2023-03-05T05:18:36.392Z,42.60
2023-03-05T05:23:38.903Z,36.00
2023-03-05T05:28:42.408Z,43.35
2023-03-05T05:33:44.201Z,40.65
2023-03-05T05:38:45.658Z,35.50
2023-03-05T05:43:47.656Z,37.97
2023-03-05T05:48:49.169Z,37.72
2023-03-05T05:53:51.269Z,34.05
2023-03-05T05:58:52.972Z,36.65
2023-03-05T06:03:55.357Z,38.20
2023-03-05T06:08:56.908Z,38.42
2023-03-05T06:13:58.439Z,38.55
2023-03-05T06:19:00.202Z,45.22
2023-03-05T06:24:01.762Z,42.20
2023-03-05T06:29:03.421Z,41.50
2023-03-05T06:34:05.049Z,49.33
2023-03-05T06:39:06.690Z,54.42
2023-03-05T06:44:08.159Z,47.17
2023-03-05T06:49:10.611Z,43.15
2023-03-05T06:54:15.383Z,37.80
2023-03-05T06:59:17.254Z,38.80
2023-03-05T07:04:18.857Z,44.63
2023-03-05T07:09:20.408Z,43.70
2023-03-05T07:14:21.916Z,40.25
2023-03-05T07:19:23.425Z,38.55
2023-03-05T07:24:24.950Z,36.40
2023-03-05T07:29:27.837Z,39.78
2023-03-05T07:34:29.408Z,37.40
2023-03-05T07:39:30.958Z,45.22
2023-03-05T07:44:32.416Z,40.13
2023-03-05T07:49:33.859Z,35.95
2023-03-05T07:54:38.963Z,41.33
2023-03-05T07:59:40.486Z,35.67
2023-03-05T08:04:42.027Z,43.60
2023-03-05T08:09:43.569Z,38.30
2023-03-05T08:14:45.080Z,42.53
2023-03-05T08:19:46.610Z,39.58
2023-03-05T08:24:48.159Z,38.83
2023-03-05T08:29:49.638Z,40.22
2023-03-05T08:34:51.113Z,39.85
2023-03-05T08:39:52.641Z,33.70
2023-03-05T08:44:54.228Z,41.20
2023-03-05T08:49:55.869Z,42.58
2023-03-05T08:54:57.482Z,37.38
2023-03-05T08:59:59.008Z,37.05
2023-03-05T09:05:00.504Z,40.20
2023-03-05T09:10:02.128Z,37.63
2023-03-05T09:15:08.674Z,40.90
2023-03-05T09:20:13.424Z,37.28
2023-03-05T09:25:14.904Z,40.42
2023-03-05T09:30:16.634Z,40.38
2023-03-05T09:35:18.256Z,35.20
2023-03-05T09:40:22.051Z,38.05
2023-03-05T09:45:56.196Z,38.78
2023-03-05T09:51:03.532Z,42.50
2023-03-05T09:56:12.137Z,42.33
2023-03-05T10:01:23.409Z,33.40
2023-03-05T10:06:24.806Z,34.88
2023-03-05T10:11:47.970Z,39.95
2023-03-05T10:17:16.680Z,39.15
2023-03-05T10:22:20.638Z,41.53
2023-03-05T10:27:47.285Z,39.65
2023-03-05T10:32:57.554Z,41.95
2023-03-05T10:38:06.565Z,40.33
2023-03-05T10:43:18.449Z,36.97
2023-03-05T10:48:27.561Z,42.97
2023-03-05T10:53:34.460Z,36.40
2023-03-05T10:58:35.951Z,41.03
2023-03-05T11:04:14.426Z,39.88
2023-03-05T11:09:20.696Z,45.15
2023-03-05T11:14:25.756Z,38.80
2023-03-05T11:19:32.128Z,35.95
2023-03-05T11:24:33.669Z,40.30
2023-03-05T11:29:46.737Z,35.85
2023-03-05T11:34:48.396Z,43.20
2023-03-05T11:40:14.464Z,37.47
2023-03-05T11:45:18.549Z,37.40
2023-03-05T11:50:32.105Z,37.03
2023-03-05T11:55:43.048Z,42.45
2023-03-05T12:00:46.946Z,37.80
2023-03-05T12:05:53.395Z,41.55
2023-03-05T12:10:55.873Z,38.30
2023-03-05T12:16:14.411Z,37.83
2023-03-05T12:21:25.135Z,37.90
2023-03-05T12:26:54.209Z,37.70
2023-03-05T12:31:55.974Z,38.20
2023-03-05T12:36:57.554Z,37.75
2023-03-05T12:41:59.078Z,33.83
2023-03-05T12:47:12.653Z,35.72
2023-03-05T12:52:26.304Z,39.88
2023-03-05T12:57:29.947Z,38.30
2023-03-05T13:02:36.888Z,38.95
2023-03-05T13:07:38.335Z,39.20
2023-03-05T13:12:39.968Z,36.92
2023-03-05T13:17:57.061Z,40.75
2023-03-05T13:23:22.274Z,33.85
2023-03-05T13:28:24.347Z,34.15
2023-03-05T13:33:30.034Z,31.52
2023-03-05T13:38:44.621Z,31.35
2023-03-05T13:43:49.995Z,33.33
2023-03-05T13:48:51.549Z,30.20
2023-03-05T13:53:53.288Z,26.73
2023-03-05T13:58:57.118Z,27.95
2023-03-05T14:04:23.209Z,29.15
2023-03-05T14:09:27.936Z,28.85
2023-03-05T14:14:34.214Z,33.10
2023-03-05T14:19:38.862Z,25.83
2023-03-05T14:24:40.471Z,29.80
2023-03-05T14:29:46.807Z,29.80
2023-03-05T14:34:54.557Z,29.88
2023-03-05T14:39:58.450Z,28.85
2023-03-05T14:45:21.365Z,24.63
2023-03-05T14:50:28.623Z,30.58
2023-03-05T14:55:32.179Z,25.95
2023-03-05T15:00:33.692Z,27.27
2023-03-05T15:05:37.134Z,30.55
2023-03-05T15:10:38.626Z,29.77
2023-03-05T15:15:41.377Z,30.63
2023-03-05T15:20:44.264Z,29.20
2023-03-05T15:25:45.828Z,30.27
2023-03-05T15:30:47.964Z,30.52
2023-03-05T15:35:49.709Z,25.13
2023-03-05T15:40:52.008Z,27.88
2023-03-05T15:45:53.552Z,31.38
2023-03-05T15:50:55.064Z,26.42
2023-03-05T15:55:56.579Z,25.17
2023-03-05T16:00:58.092Z,23.50
2023-03-05T16:05:59.661Z,26.30
2023-03-05T16:11:01.357Z,22.65
2023-03-05T16:16:06.817Z,27.35
2023-03-05T16:21:08.380Z,23.23
2023-03-05T16:26:09.933Z,20.83
2023-03-05T16:31:11.576Z,18.23
2023-03-05T16:36:24.652Z,15.18
2023-03-05T16:41:26.880Z,17.52
2023-03-05T16:46:29.691Z,18.90
2023-03-05T16:51:31.271Z,14.73
2023-03-05T16:56:32.794Z,15.90
2023-03-05T17:01:34.304Z,13.77
2023-03-05T17:06:35.812Z,14.07
2023-03-05T17:11:37.276Z,16.80
2023-03-05T17:16:38.775Z,13.90
2023-03-05T17:21:42.308Z,13.60
2023-03-05T17:26:44.279Z,15.57
2023-03-05T17:31:45.905Z,13.10
2023-03-05T17:36:47.751Z,14.32
2023-03-05T17:41:49.255Z,15.70
2023-03-05T17:46:50.808Z,13.27
2023-03-05T17:51:52.288Z,13.43
2023-03-05T17:56:55.149Z,17.33
2023-03-05T18:01:56.666Z,16.85
2023-03-05T18:06:58.197Z,11.18
2023-03-05T18:11:59.793Z,17.52
2023-03-05T18:17:01.284Z,13.23
2023-03-05T18:22:02.823Z,12.27
2023-03-05T18:27:04.421Z,14.95
2023-03-05T18:32:06.057Z,14.98
2023-03-05T18:37:07.573Z,13.07
2023-03-05T18:42:12.960Z,14.85
2023-03-05T18:47:14.461Z,12.82
2023-03-05T18:52:15.984Z,11.63
2023-03-05T18:57:17.493Z,12.68
2023-03-05T19:02:19.022Z,15.98
2023-03-05T19:07:20.552Z,14.10
2023-03-05T19:12:24.531Z,24.33
2023-03-05T19:17:26.051Z,15.35
2023-03-05T19:22:29.888Z,16.65
2023-03-05T19:27:31.388Z,14.57
2023-03-05T19:32:33.037Z,15.68
2023-03-05T19:37:34.534Z,17.85
2023-03-05T19:42:35.968Z,12.57
2023-03-05T19:47:37.500Z,17.38
2023-03-05T19:52:39.032Z,19.08
2023-03-05T19:57:40.577Z,20.42
2023-03-05T20:02:42.061Z,21.83
2023-03-05T20:07:43.643Z,24.67
2023-03-05T20:12:45.163Z,22.30
2023-03-05T20:17:46.683Z,25.00
2023-03-05T20:22:48.303Z,22.00
2023-03-05T20:27:50.714Z,33.55
2023-03-05T20:32:52.177Z,23.35
2023-03-05T20:37:59.642Z,24.83
2023-03-05T20:43:01.078Z,22.15
2023-03-05T20:48:02.595Z,29.95
2023-03-05T20:53:04.379Z,21.80
2023-03-05T20:58:05.961Z,27.17
2023-03-05T21:03:08.464Z,20.70
2023-03-05T21:08:09.985Z,21.92
2023-03-05T21:13:11.462Z,26.58
2023-03-05T21:18:12.915Z,23.77
2023-03-05T21:23:14.380Z,23.23
2023-03-05T21:28:16.434Z,32.90
2023-03-05T21:33:23.822Z,33.42
2023-03-05T21:38:25.729Z,26.42
2023-03-05T21:43:27.732Z,24.83
2023-03-05T21:48:29.686Z,29.35
2023-03-05T21:53:31.223Z,32.30
2023-03-05T21:58:34.605Z,33.90
2023-03-05T22:03:36.161Z,34.10
2023-03-05T22:08:37.778Z,31.90
2023-03-05T22:13:39.881Z,26.55
2023-03-05T22:18:41.414Z,33.78
2023-03-05T22:23:42.921Z,32.70
2023-03-05T22:28:44.398Z,34.38
2023-03-05T22:33:45.898Z,31.98
2023-03-05T22:38:47.576Z,34.95
2023-03-05T22:43:50.628Z,31.17
2023-03-05T22:48:52.695Z,26.05
2023-03-05T22:53:54.189Z,36.70
2023-03-05T22:58:57.079Z,33.13
2023-03-05T23:03:58.626Z,35.88
2023-03-05T23:09:00.225Z,34.55
2023-03-05T23:14:01.766Z,29.95
2023-03-05T23:19:03.323Z,36.17
2023-03-05T23:24:05.158Z,29.75
2023-03-05T23:29:06.627Z,42.95
2023-03-05T23:34:08.112Z,31.38
2023-03-05T23:39:09.580Z,29.55
2023-03-05T23:44:11.096Z,30.05
2023-03-05T23:49:12.632Z,30.58
2023-03-05T23:54:14.103Z,35.25
2023-03-05T23:59:15.607Z,33.88
